createdAt,value
2023-05-23T00:03:06.902Z,2.50
2023-05-23T00:06:50.765Z,2.85
2023-05-23T00:10:32.925Z,2.25
2023-05-23T00:14:15.602Z,2.45
2023-05-23T00:17:57.804Z,2.47
2023-05-23T00:21:39.753Z,2.88
2023-05-23T00:25:22.154Z,2.80
2023-05-23T00:29:04.117Z,2.03
2023-05-23T00:32:46.033Z,1.48
2023-05-23T00:36:28.440Z,1.95
2023-05-23T00:40:10.670Z,1.83
2023-05-23T00:43:52.969Z,2.25
2023-05-23T00:47:34.942Z,2.75
2023-05-23T00:51:16.900Z,2.60
2023-05-23T00:54:58.744Z,2.08
2023-05-23T00:58:41.248Z,2.08
2023-05-23T01:02:23.388Z,2.47
2023-05-23T01:06:05.397Z,2.28
2023-05-23T01:09:47.661Z,2.40
2023-05-23T01:13:47.212Z,2.25
2023-05-23T01:17:49.051Z,2.63
2023-05-23T01:21:32.502Z,2.30
2023-05-23T01:25:57.989Z,2.42
2023-05-23T01:29:45.936Z,2.38
2023-05-23T01:33:28.815Z,2.08
2023-05-23T01:37:14.765Z,2.50
2023-05-23T01:40:56.853Z,2.08
2023-05-23T01:44:39.457Z,1.98
2023-05-23T01:48:22.921Z,2.20
2023-05-23T01:52:05.636Z,2.60
2023-05-23T01:55:47.995Z,2.30
2023-05-23T01:59:29.939Z,2.40
2023-05-23T02:03:12.079Z,2.13
2023-05-23T02:06:54.101Z,1.83
2023-05-23T02:10:36.008Z,2.63
2023-05-23T02:14:18.762Z,2.33
2023-05-23T02:18:03.467Z,2.25
2023-05-23T02:21:45.759Z,2.72
2023-05-23T02:25:27.684Z,2.85
2023-05-23T02:29:09.549Z,2.40
2023-05-23T02:32:51.769Z,2.50
2023-05-23T02:36:34.252Z,2.50
2023-05-23T02:40:16.236Z,2.40
2023-05-23T02:43:58.777Z,2.10
2023-05-23T02:47:40.621Z,2.75
2023-05-23T02:51:22.594Z,2.33
2023-05-23T02:55:04.771Z,2.85
2023-05-23T02:58:46.639Z,2.35
2023-05-23T03:02:28.574Z,3.17
2023-05-23T03:06:14.650Z,2.53
2023-05-23T03:09:56.877Z,2.63
2023-05-23T03:13:38.930Z,2.50
2023-05-23T03:17:21.200Z,2.58
2023-05-23T03:21:03.700Z,2.70
2023-05-23T03:24:45.674Z,2.08
2023-05-23T03:28:27.550Z,3.08
2023-05-23T03:32:09.555Z,2.42
2023-05-23T03:35:52.990Z,2.95
2023-05-23T03:39:34.832Z,2.95
2023-05-23T03:43:16.702Z,2.47
2023-05-23T03:46:58.565Z,2.03
2023-05-23T03:50:40.471Z,2.58
2023-05-23T03:54:22.372Z,2.30
2023-05-23T03:58:04.249Z,2.38
2023-05-23T04:01:46.093Z,2.88
2023-05-23T04:05:27.944Z,2.35
2023-05-23T04:09:09.767Z,2.50
2023-05-23T04:12:51.732Z,2.45
2023-05-23T04:16:36.301Z,2.90
2023-05-23T04:20:18.516Z,2.38
2023-05-23T04:24:03.005Z,3.08
2023-05-23T04:27:45.115Z,2.78
2023-05-23T04:31:27.163Z,2.63
2023-05-23T04:35:10.300Z,3.17
2023-05-23T04:38:53.909Z,2.75
2023-05-23T04:42:36.154Z,3.00
2023-05-23T04:46:19.045Z,2.90
2023-05-23T04:50:05.619Z,2.78
2023-05-23T04:53:49.120Z,2.72
2023-05-23T04:57:30.996Z,2.45
2023-05-23T05:01:14.032Z,2.10
2023-05-23T05:04:55.970Z,2.00
2023-05-23T05:08:37.887Z,2.58
2023-05-23T05:12:19.757Z,2.10
2023-05-23T05:16:01.784Z,2.17
2023-05-23T05:19:43.603Z,2.85
2023-05-23T05:23:28.961Z,2.55
2023-05-23T05:27:12.025Z,2.90
2023-05-23T05:30:54.305Z,3.00
2023-05-23T05:34:37.992Z,2.67
2023-05-23T05:38:20.009Z,2.97
2023-05-23T05:42:03.804Z,3.38
2023-05-23T05:45:45.868Z,3.13
2023-05-23T05:49:28.332Z,2.67
2023-05-23T05:53:10.178Z,2.92
2023-05-23T05:56:52.039Z,2.80
2023-05-23T06:00:42.070Z,3.05
2023-05-23T06:04:24.198Z,3.15
2023-05-23T06:08:06.847Z,3.70
2023-05-23T06:11:48.755Z,4.13
2023-05-23T06:15:30.634Z,3.78
2023-05-23T06:19:12.563Z,3.95
2023-05-23T06:22:54.447Z,3.85
2023-05-23T06:26:37.710Z,4.22
2023-05-23T06:30:19.580Z,4.53
2023-05-23T06:34:01.645Z,4.28
2023-05-23T06:37:45.772Z,4.32
2023-05-23T06:41:27.722Z,4.45
2023-05-23T06:45:10.104Z,4.97
2023-05-23T06:49:02.508Z,4.50
2023-05-23T06:52:46.777Z,4.07
2023-05-23T06:56:28.642Z,4.53
2023-05-23T07:00:11.641Z,4.35
2023-05-23T07:03:53.482Z,4.53
2023-05-23T07:07:35.358Z,4.18
2023-05-23T07:11:17.267Z,3.70
2023-05-23T07:14:59.093Z,3.47
2023-05-23T07:18:41.137Z,3.97
2023-05-23T07:22:22.974Z,3.80
2023-05-23T07:26:05.107Z,3.55
2023-05-23T07:29:46.945Z,3.78
2023-05-23T07:33:29.062Z,3.50
2023-05-23T07:37:11.264Z,3.63
2023-05-23T07:41:06.781Z,3.50
2023-05-23T07:44:52.355Z,3.95
2023-05-23T07:48:34.282Z,3.40
2023-05-23T07:52:16.117Z,3.45
2023-05-23T07:55:58.029Z,3.20
2023-05-23T07:59:39.979Z,3.45
2023-05-23T08:03:21.985Z,3.40
2023-05-23T08:07:06.027Z,3.72
2023-05-23T08:10:48.310Z,3.90
2023-05-23T08:14:38.686Z,3.13
2023-05-23T08:18:31.379Z,3.40
2023-05-23T08:22:13.229Z,3.42
2023-05-23T08:25:56.249Z,3.42
2023-05-23T08:29:38.545Z,2.80
2023-05-23T08:33:20.397Z,3.65
2023-05-23T08:37:02.431Z,3.10
2023-05-23T08:40:53.511Z,3.72
2023-05-23T08:44:36.037Z,2.70
2023-05-23T08:48:20.739Z,2.63
2023-05-23T08:52:06.373Z,3.10
2023-05-23T08:55:48.969Z,2.65
2023-05-23T08:59:33.267Z,2.85
2023-05-23T09:03:15.287Z,3.00
2023-05-23T09:06:58.087Z,3.40
2023-05-23T09:10:40.734Z,3.08
2023-05-23T09:14:22.766Z,3.15
2023-05-23T09:18:04.705Z,2.72
2023-05-23T09:21:46.841Z,3.40
2023-05-23T09:25:28.698Z,3.03
2023-05-23T09:29:10.609Z,3.22
2023-05-23T09:33:03.142Z,3.38
2023-05-23T09:36:47.205Z,3.00
2023-05-23T09:40:33.378Z,3.13
2023-05-23T09:44:23.786Z,2.67
2023-05-23T09:48:12.101Z,3.17
2023-05-23T09:51:58.284Z,3.35
2023-05-23T09:55:40.594Z,3.10
2023-05-23T09:59:26.427Z,3.35
2023-05-23T10:07:05.123Z,2.50
2023-05-23T10:11:21.977Z,3.45
2023-05-23T10:15:05.947Z,2.83
2023-05-23T10:18:55.635Z,2.55
2023-05-23T10:22:38.607Z,2.50
2023-05-23T10:26:22.051Z,3.08
2023-05-23T10:30:04.539Z,2.78
2023-05-23T10:33:56.544Z,3.17
2023-05-23T10:37:50.123Z,2.25
2023-05-23T10:41:44.922Z,2.80
2023-05-23T10:45:26.796Z,2.55
2023-05-23T10:49:08.806Z,2.35
2023-05-23T10:52:53.757Z,2.42
2023-05-23T10:56:37.170Z,2.85
2023-05-23T11:00:24.712Z,2.47
2023-05-23T11:04:07.628Z,2.20
2023-05-23T11:08:14.611Z,2.75
2023-05-23T11:12:05.490Z,2.55
2023-05-23T11:15:47.634Z,2.70
2023-05-23T11:19:30.066Z,2.47
2023-05-23T11:23:12.897Z,2.65
2023-05-23T11:27:00.487Z,2.75
2023-05-23T11:30:42.482Z,2.85
2023-05-23T11:34:27.284Z,2.90
2023-05-23T11:38:10.650Z,2.65
2023-05-23T11:42:03.013Z,3.13
2023-05-23T11:45:47.033Z,2.55
2023-05-23T11:49:37.956Z,2.20
2023-05-23T11:53:22.265Z,2.25
2023-05-23T11:57:04.765Z,2.78
2023-05-23T12:00:46.719Z,2.25
2023-05-23T12:04:29.000Z,2.95
2023-05-23T12:08:13.796Z,3.13
2023-05-23T12:11:55.787Z,2.33
2023-05-23T12:15:39.738Z,2.65
2023-05-23T12:19:21.861Z,2.47
2023-05-23T12:23:06.708Z,3.08
2023-05-23T12:26:53.344Z,3.03
2023-05-23T12:30:42.999Z,2.97
2023-05-23T12:34:25.500Z,2.95
2023-05-23T12:38:07.359Z,3.13
2023-05-23T12:41:49.192Z,2.85
2023-05-23T12:45:36.630Z,2.88
2023-05-23T12:49:18.563Z,2.67
2023-05-23T12:53:00.538Z,3.75
2023-05-23T12:56:42.360Z,3.63
2023-05-23T13:00:24.392Z,3.97
2023-05-23T13:04:06.305Z,2.97
2023-05-23T13:07:48.423Z,3.42
2023-05-23T13:11:31.496Z,3.30
2023-05-23T13:15:13.413Z,3.33
2023-05-23T13:18:55.665Z,3.22
2023-05-23T13:22:37.639Z,2.92
2023-05-23T13:26:19.680Z,2.63
2023-05-23T13:30:01.749Z,3.20
2023-05-23T13:33:43.633Z,3.15
2023-05-23T13:37:26.039Z,3.17
2023-05-23T13:41:08.089Z,2.20
2023-05-23T13:44:49.966Z,3.15
2023-05-23T13:48:31.963Z,2.30
2023-05-23T13:52:14.065Z,2.72
2023-05-23T13:55:55.979Z,2.53
2023-05-23T13:59:37.790Z,2.42
2023-05-23T14:03:19.993Z,2.53
2023-05-23T14:07:01.866Z,2.60
2023-05-23T14:10:43.888Z,3.92
2023-05-23T14:14:27.188Z,2.72
2023-05-23T14:18:09.146Z,2.47
2023-05-23T14:21:51.131Z,2.42
2023-05-23T14:25:32.999Z,2.97
2023-05-23T14:29:14.897Z,2.97
2023-05-23T14:32:56.760Z,3.65
2023-05-23T14:36:38.749Z,2.70
2023-05-23T14:40:20.659Z,2.85
2023-05-23T14:44:03.669Z,2.85
2023-05-23T14:47:45.573Z,3.03
2023-05-23T14:51:43.203Z,3.13
2023-05-23T14:55:28.424Z,2.83
2023-05-23T14:59:11.067Z,2.55
2023-05-23T15:02:52.989Z,2.90
2023-05-23T15:06:38.162Z,3.05
2023-05-23T15:10:20.101Z,2.83
2023-05-23T15:14:02.163Z,3.10
2023-05-23T15:17:44.100Z,3.15
2023-05-23T15:21:26.767Z,2.35
2023-05-23T15:25:09.699Z,2.72
2023-05-23T15:28:51.547Z,2.45
2023-05-23T15:32:33.496Z,2.75
2023-05-23T15:36:15.454Z,2.40
2023-05-23T15:39:57.463Z,3.03
2023-05-23T15:43:39.359Z,2.28
2023-05-23T15:47:21.209Z,2.90
2023-05-23T15:51:03.050Z,2.75
2023-05-23T15:54:45.059Z,2.53
2023-05-23T15:58:27.074Z,2.75
2023-05-23T16:02:10.392Z,2.28
2023-05-23T16:05:52.514Z,2.92
2023-05-23T16:09:34.398Z,2.50
2023-05-23T16:13:17.943Z,2.30
2023-05-23T16:17:02.813Z,2.78
2023-05-23T16:20:44.732Z,3.45
2023-05-23T16:24:28.188Z,2.70
2023-05-23T16:28:10.304Z,2.60
2023-05-23T16:31:52.368Z,2.67
2023-05-23T16:35:34.370Z,3.30
2023-05-23T16:39:16.294Z,2.38
2023-05-23T16:42:58.261Z,2.47
2023-05-23T16:46:40.412Z,3.33
2023-05-23T16:50:22.369Z,2.40
2023-05-23T16:54:04.309Z,3.47
2023-05-23T16:57:46.187Z,3.25
2023-05-23T17:01:29.835Z,3.13
2023-05-23T17:05:11.811Z,3.08
2023-05-23T17:08:53.717Z,2.75
2023-05-23T17:12:36.121Z,3.03
2023-05-23T17:16:20.474Z,3.30
2023-05-23T17:20:03.915Z,3.05
2023-05-23T17:23:46.036Z,2.58
2023-05-23T17:27:28.084Z,2.70
2023-05-23T17:31:10.898Z,2.60
2023-05-23T17:34:53.157Z,3.10
2023-05-23T17:38:35.110Z,2.83
2023-05-23T17:42:16.990Z,3.00
2023-05-23T17:45:58.874Z,2.78
2023-05-23T17:49:41.865Z,3.17
2023-05-23T17:53:23.917Z,2.80
2023-05-23T17:57:07.926Z,2.97
2023-05-23T18:00:50.414Z,3.20
2023-05-23T18:04:32.367Z,3.60
2023-05-23T18:08:14.383Z,3.10
2023-05-23T18:11:56.447Z,3.47
2023-05-23T18:15:39.082Z,3.58
2023-05-23T18:19:21.222Z,2.85
2023-05-23T18:23:03.373Z,3.33
2023-05-23T18:26:45.431Z,3.38
2023-05-23T18:30:27.813Z,2.55
2023-05-23T18:34:09.981Z,2.90
2023-05-23T18:37:52.088Z,3.25
2023-05-23T18:41:33.959Z,3.47
2023-05-23T18:45:16.379Z,3.25
2023-05-23T18:48:58.434Z,3.42
2023-05-23T18:52:40.874Z,3.30
2023-05-23T18:56:23.200Z,3.30
2023-05-23T19:00:06.380Z,3.42
2023-05-23T19:03:48.579Z,2.70
2023-05-23T19:07:30.910Z,3.17
2023-05-23T19:11:13.778Z,2.97
2023-05-23T19:14:55.996Z,2.92
2023-05-23T19:18:37.984Z,2.78
2023-05-23T19:22:20.005Z,3.13
2023-05-23T19:26:02.153Z,3.03
2023-05-23T19:29:44.653Z,3.58
2023-05-23T19:33:26.562Z,3.00
2023-05-23T19:37:08.567Z,3.80
2023-05-23T19:40:50.454Z,3.15
2023-05-23T19:44:32.393Z,4.13
2023-05-23T19:48:14.541Z,3.58
2023-05-23T19:51:56.571Z,3.10
2023-05-23T19:55:38.465Z,3.47
2023-05-23T19:59:20.565Z,3.53
2023-05-23T20:03:03.709Z,4.45
2023-05-23T20:06:45.715Z,3.80
2023-05-23T20:10:27.872Z,3.47
2023-05-23T20:14:10.048Z,3.28
2023-05-23T20:17:52.170Z,3.78
2023-05-23T20:21:34.115Z,3.25
2023-05-23T20:25:17.458Z,5.25
2023-05-23T20:29:00.009Z,5.57
2023-05-23T20:32:42.852Z,4.22
2023-05-23T20:36:25.100Z,4.30
2023-05-23T20:40:07.724Z,3.88
2023-05-23T20:43:49.658Z,4.25
2023-05-23T20:47:32.756Z,4.00
2023-05-23T20:51:15.801Z,4.32
2023-05-23T20:54:58.539Z,4.10
2023-05-23T20:58:43.483Z,5.40
2023-05-23T21:02:25.975Z,5.88
2023-05-23T21:06:09.047Z,5.45
2023-05-23T21:09:51.125Z,4.88
2023-05-23T21:13:32.971Z,4.80
2023-05-23T21:17:16.031Z,4.80
2023-05-23T21:20:57.908Z,4.35
2023-05-23T21:24:39.769Z,4.68
2023-05-23T21:28:21.700Z,4.50
2023-05-23T21:32:03.896Z,4.32
2023-05-23T21:35:46.017Z,4.07
2023-05-23T21:39:39.198Z,5.28
2023-05-23T21:43:29.190Z,4.82
2023-05-23T21:47:11.026Z,4.60
2023-05-23T21:50:52.871Z,4.72
2023-05-23T21:54:34.885Z,4.57
2023-05-23T21:58:16.758Z,5.57
2023-05-23T22:01:58.716Z,5.05
2023-05-23T22:05:40.671Z,5.32
2023-05-23T22:09:22.519Z,4.68
2023-05-23T22:13:04.834Z,5.25
2023-05-23T22:16:46.833Z,5.00
2023-05-23T22:20:29.795Z,5.35
2023-05-23T22:24:12.296Z,4.95
2023-05-23T22:27:54.502Z,4.93
2023-05-23T22:31:36.337Z,5.80
2023-05-23T22:35:18.198Z,5.72
2023-05-23T22:39:02.303Z,4.93
2023-05-23T22:42:44.267Z,5.43
2023-05-23T22:46:26.177Z,5.78
2023-05-23T22:50:08.344Z,6.30
2023-05-23T22:53:50.396Z,6.22
2023-05-23T22:57:32.408Z,6.18
2023-05-23T23:01:14.418Z,6.20
2023-05-23T23:04:56.305Z,5.57
2023-05-23T23:08:38.181Z,5.82
2023-05-23T23:12:20.113Z,5.15
2023-05-23T23:16:02.032Z,4.53
2023-05-23T23:19:43.995Z,5.00
2023-05-23T23:23:26.031Z,3.90
2023-05-23T23:27:07.915Z,4.63
2023-05-23T23:30:49.804Z,4.13
2023-05-23T23:34:31.713Z,4.97
2023-05-23T23:38:13.698Z,4.45
2023-05-23T23:41:55.611Z,4.40
2023-05-23T23:45:37.551Z,3.90
2023-05-23T23:49:19.633Z,5.30
2023-05-23T23:53:01.525Z,4.38
2023-05-23T23:56:43.398Z,4.70
